Terminal Aerodrome Forecast
Issued by NWS

Home | Current Version | Previous Version | Text Only | Print | Product List | Glossary On
Versions: 1 2 3 4 5 6 7 8 9 10 11 12 13 14 15 16 17
000
FTUS43 KIND 011100
TAFHUF
TAF
KHUF 011120Z 0112/0212 33003KT P6SM BCFG SKC
     FM011300 VRB03KT P6SM SCT250
     FM011600 07005KT P6SM SCT040 SCT250
     FM011900 04004KT P6SM BKN040
     FM020200 01003KT P6SM SCT040 BKN250
     FM020900 VRB03KT 4SM BR SCT040 BKN200=

USA.gov is the U.S. government's official web portal to all federal, state and local government web resources and services.